Time;durP1;ratioP1;P1;durP2;ratioP2;P2;SDS_P1;SDS_P2;PMS_P1;PMS_P2;Temp;Humidity;BMP_temperature;BMP_pressure;BME280_temperature;BME280_humidity;BME280_pressure;Samples;Min_cycle;Max_cycle;Signal;HPM_P1;HPM_P2
2023/11/15 00:02:14;;;;;;;4.50;1.60;;;;;;;8.95;81.43;95395.13;109022;1272;24202;-81
2023/11/15 00:04:46;;;;;;;2.80;1.50;;;;;;;8.93;81.44;95393.00;109036;1272;22551;-80
2023/11/15 00:07:20;;;;;;;3.30;1.20;;;;;;;8.94;81.51;95392.45;108974;1272;22517;-81
2023/11/15 00:09:51;;;;;;;4.40;1.60;;;;;;;8.97;81.53;95396.83;108975;1272;22617;-80
2023/11/15 00:12:24;;;;;;;6.60;1.70;;;;;;;8.97;81.36;95396.35;109013;1272;22522;-81
2023/11/15 00:14:56;;;;;;;2.90;1.10;;;;;;;8.97;81.42;95392.21;108993;1267;22547;-80
2023/11/15 00:17:30;;;;;;;1.70;1.10;;;;;;;9.01;81.39;95397.77;108990;1272;22534;-80
2023/11/15 00:20:03;;;;;;;3.10;1.60;;;;;;;9.01;81.28;95392.35;108995;1272;22535;-81
2023/11/15 00:22:35;;;;;;;5.00;1.60;;;;;;;9.01;81.23;95392.51;109064;1270;22599;-81
2023/11/15 00:25:08;;;;;;;2.40;1.20;;;;;;;9.00;81.17;95391.67;109069;1272;22551;-80
2023/11/15 00:27:39;;;;;;;6.70;1.40;;;;;;;8.96;81.25;95396.78;109148;1270;25462;-81
2023/11/15 00:30:16;;;;;;;3.70;1.30;;;;;;;8.96;81.35;95392.73;109038;1267;22583;-81
2023/11/15 00:32:47;;;;;;;2.80;0.90;;;;;;;8.95;81.25;95389.25;109044;1266;22527;-80
2023/11/15 00:35:18;;;;;;;2.40;1.30;;;;;;;8.99;81.28;95392.02;109052;1272;24354;-81
2023/11/15 00:37:49;;;;;;;5.50;1.40;;;;;;;9.00;81.24;95388.78;109013;1265;22530;-80
2023/11/15 00:40:21;;;;;;;6.80;1.40;;;;;;;8.97;81.14;95385.24;109015;1269;25277;-80
2023/11/15 00:42:54;;;;;;;3.20;1.30;;;;;;;8.97;81.16;95383.95;109038;1272;22519;-81
2023/11/15 00:45:25;;;;;;;2.60;0.80;;;;;;;8.95;81.12;95380.64;109120;1266;22562;-81
2023/11/15 00:47:56;;;;;;;3.40;1.20;;;;;;;8.95;80.93;95376.00;109093;1266;23282;-80
2023/11/15 00:50:27;;;;;;;2.50;0.90;;;;;;;8.95;81.00;95378.68;109010;1272;22630;-81
2023/11/15 00:52:59;;;;;;;1.90;1.00;;;;;;;8.97;80.84;95375.58;109105;1272;25249;-81
2023/11/15 00:55:30;;;;;;;2.70;1.00;;;;;;;8.97;80.76;95372.04;109098;1272;25286;-81
2023/11/15 00:58:03;;;;;;;2.60;0.90;;;;;;;8.95;80.70;95372.61;109117;1266;22525;-81
2023/11/15 01:00:39;;;;;;;3.20;1.00;;;;;;;8.97;80.67;95366.06;108958;1272;22614;-81
2023/11/15 01:03:12;;;;;;;3.40;1.20;;;;;;;9.01;80.53;95367.88;109127;1266;26459;-81
2023/11/15 01:05:43;;;;;;;3.20;1.00;;;;;;;9.03;80.42;95368.15;109198;1272;22603;-81
2023/11/15 01:08:14;;;;;;;3.60;1.20;;;;;;;9.02;80.32;95369.14;109105;1272;22639;-80
2023/11/15 01:10:46;;;;;;;1.30;0.80;;;;;;;8.99;80.37;95365.89;109106;1266;25268;-81
2023/11/15 01:13:17;;;;;;;3.40;0.90;;;;;;;8.96;80.56;95364.66;109155;1266;23176;-81
2023/11/15 01:15:48;;;;;;;3.60;1.30;;;;;;;8.91;80.58;95365.44;109172;1266;25258;-81
2023/11/15 01:18:21;;;;;;;2.30;0.90;;;;;;;8.89;80.60;95362.90;109113;1266;26228;-80
2023/11/15 01:20:52;;;;;;;2.30;0.70;;;;;;;8.88;80.66;95366.48;109130;1272;22559;-81
2023/11/15 01:23:24;;;;;;;4.10;0.80;;;;;;;8.86;80.77;95367.88;109160;1272;24326;-81
2023/11/15 01:25:55;;;;;;;1.70;0.80;;;;;;;8.84;80.79;95372.10;109166;1272;26780;-81
2023/11/15 01:28:26;;;;;;;2.70;1.00;;;;;;;8.83;80.71;95378.34;109057;1272;22528;-80
2023/11/15 01:30:58;;;;;;;1.90;0.70;;;;;;;8.83;80.84;95377.45;108986;1271;25387;-81
2023/11/15 01:33:32;;;;;;;1.80;0.60;;;;;;;8.80;80.86;95376.77;108976;1267;22640;-81
2023/11/15 01:36:04;;;;;;;1.50;0.50;;;;;;;8.79;80.96;95374.80;109064;1266;22926;-81
2023/11/15 01:38:37;;;;;;;1.20;0.60;;;;;;;8.78;81.00;95371.75;109086;1272;22530;-81
2023/11/15 01:41:09;;;;;;;1.00;0.60;;;;;;;8.77;80.97;95368.34;109160;1272;24186;-81
2023/11/15 01:43:44;;;;;;;1.50;0.60;;;;;;;8.78;80.92;95360.71;109129;1272;24644;-81
2023/11/15 01:46:16;;;;;;;1.20;0.50;;;;;;;8.79;80.96;95359.52;109051;1272;23707;-81
2023/11/15 01:48:48;;;;;;;1.10;0.70;;;;;;;8.78;80.95;95358.85;108995;1272;22551;-81
2023/11/15 01:51:20;;;;;;;1.80;0.80;;;;;;;8.78;81.00;95360.27;108947;1270;22522;-81
2023/11/15 01:53:54;;;;;;;1.70;0.70;;;;;;;8.76;81.09;95362.18;109078;1272;22538;-81
2023/11/15 01:56:25;;;;;;;1.40;0.70;;;;;;;8.75;80.95;95361.77;109035;1272;23440;-81
2023/11/15 01:58:58;;;;;;;2.60;0.80;;;;;;;8.75;80.91;95362.83;108992;1272;24713;-81
2023/11/15 02:01:31;;;;;;;1.30;0.70;;;;;;;8.74;81.08;95364.07;109199;1272;22529;-81
2023/11/15 02:04:02;;;;;;;1.10;0.60;;;;;;;8.72;81.10;95362.15;109151;1272;24244;-81
2023/11/15 02:06:35;;;;;;;1.60;0.60;;;;;;;8.70;81.26;95360.13;109229;1272;22514;-81
2023/11/15 02:09:07;;;;;;;1.60;0.60;;;;;;;8.68;81.25;95361.33;109174;1272;25313;-80
2023/11/15 02:11:38;;;;;;;1.20;0.80;;;;;;;8.67;81.44;95355.19;109124;1272;22598;-81
2023/11/15 02:14:10;;;;;;;1.20;0.50;;;;;;;8.62;81.51;95357.30;109175;1266;22639;-81
2023/11/15 02:16:44;;;;;;;1.30;0.70;;;;;;;8.58;81.86;95356.25;109191;1266;22532;-81
2023/11/15 02:19:16;;;;;;;1.40;0.90;;;;;;;8.55;82.04;95360.16;109108;1266;22532;-81
2023/11/15 02:21:52;;;;;;;0.90;0.50;;;;;;;8.52;82.09;95359.45;109098;1272;25955;-81
2023/11/15 02:24:24;;;;;;;1.50;0.70;;;;;;;8.49;82.33;95362.10;109141;1272;23836;-81
2023/11/15 02:26:55;;;;;;;1.20;0.60;;;;;;;8.46;82.42;95359.95;109119;1272;22552;-81
2023/11/15 02:29:26;;;;;;;2.40;0.70;;;;;;;8.45;82.64;95354.48;109076;1266;25463;-81
2023/11/15 02:31:57;;;;;;;1.70;0.50;;;;;;;8.43;82.79;95350.37;109113;1272;22784;-81
2023/11/15 02:34:29;;;;;;;0.80;0.60;;;;;;;8.41;82.97;95351.54;108981;1272;22535;-81
2023/11/15 02:37:00;;;;;;;1.60;0.90;;;;;;;8.39;83.25;95351.21;109023;1272;24218;-80
2023/11/15 02:39:31;;;;;;;1.30;0.70;;;;;;;8.36;83.34;95353.48;108903;1272;22535;-81
2023/11/15 02:42:06;;;;;;;0.90;0.70;;;;;;;8.33;83.54;95357.44;108985;1272;22559;-81
2023/11/15 02:44:37;;;;;;;1.30;0.70;;;;;;;8.29;83.72;95363.92;108950;1265;22552;-81
2023/11/15 02:47:08;;;;;;;1.90;0.60;;;;;;;8.26;83.99;95359.61;108942;1266;23138;-80
2023/11/15 02:49:39;;;;;;;1.10;0.70;;;;;;;8.24;84.28;95355.67;108872;1269;26508;-80
2023/11/15 02:52:10;;;;;;;1.20;0.60;;;;;;;8.25;84.43;95353.14;108915;1272;22642;-80
2023/11/15 02:54:41;;;;;;;0.90;0.40;;;;;;;8.23;84.74;95351.75;108849;1272;24404;-80
2023/11/15 02:57:13;;;;;;;1.60;0.70;;;;;;;8.20;84.95;95342.52;108935;1271;22554;-81
2023/11/15 02:59:44;;;;;;;0.80;0.50;;;;;;;8.16;85.29;95333.33;108898;1272;22561;-80
2023/11/15 03:02:16;;;;;;;0.80;0.60;;;;;;;8.13;85.46;95343.54;108898;1272;22567;-80
2023/11/15 03:04:48;;;;;;;2.60;0.80;;;;;;;8.07;85.74;95355.17;108910;1266;22532;-80
2023/11/15 03:07:19;;;;;;;2.40;0.70;;;;;;;8.02;86.20;95350.19;108990;1250;22525;-80
2023/11/15 03:09:50;;;;;;;1.60;0.80;;;;;;;7.98;86.35;95353.52;108860;1266;25393;-80
2023/11/15 03:12:21;;;;;;;1.60;0.60;;;;;;;7.95;86.73;95355.92;109002;1266;22537;-81
2023/11/15 03:14:56;;;;;;;3.20;0.80;;;;;;;7.93;87.19;95356.95;109012;1272;22489;-80
2023/11/15 03:17:27;;;;;;;2.20;0.50;;;;;;;7.92;87.64;95356.19;109003;1266;22534;-80
2023/11/15 03:20:00;;;;;;;1.70;0.70;;;;;;;7.89;88.31;95363.06;108883;1264;24160;-80
2023/11/15 03:22:31;;;;;;;1.10;0.60;;;;;;;7.88;88.86;95365.28;108910;1266;24696;-80
2023/11/15 03:25:03;;;;;;;1.00;0.60;;;;;;;7.85;89.14;95368.44;109002;1272;22538;-80
2023/11/15 03:27:36;;;;;;;1.60;0.90;;;;;;;7.81;89.48;95364.83;108984;1272;22560;-80
2023/11/15 03:30:12;;;;;;;2.40;0.80;;;;;;;7.77;89.66;95367.43;108996;1272;22719;-80
2023/11/15 03:32:43;;;;;;;2.60;0.90;;;;;;;7.72;89.89;95370.08;108965;1272;24311;-80
2023/11/15 03:35:14;;;;;;;1.30;0.80;;;;;;;7.65;90.24;95374.80;108930;1266;22521;-80
2023/11/15 03:37:48;;;;;;;1.90;0.80;;;;;;;7.61;90.70;95376.18;108857;1272;22520;-78
2023/11/15 03:40:19;;;;;;;1.90;0.90;;;;;;;7.60;91.20;95374.09;108897;1272;22535;-79
2023/11/15 03:42:51;;;;;;;2.50;0.70;;;;;;;7.59;91.83;95378.30;108953;1272;22518;-80
2023/11/15 03:45:22;;;;;;;1.20;0.70;;;;;;;7.58;92.32;95377.02;108878;1272;22560;-80
2023/11/15 03:47:54;;;;;;;1.50;0.60;;;;;;;7.56;92.92;95377.30;108896;1272;24312;-79
2023/11/15 03:50:25;;;;;;;1.40;0.70;;;;;;;7.56;92.97;95379.74;108883;1272;22521;-79
2023/11/15 03:52:56;;;;;;;1.80;0.80;;;;;;;7.51;93.19;95370.38;108979;1266;22531;-79
2023/11/15 03:55:27;;;;;;;1.80;0.90;;;;;;;7.47;93.33;95372.88;109094;1266;22545;-80
2023/11/15 03:57:58;;;;;;;1.20;0.50;;;;;;;7.46;93.46;95370.16;109001;1266;26950;-80
2023/11/15 04:00:32;;;;;;;1.70;0.90;;;;;;;7.45;94.02;95377.54;109036;1266;22547;-80
2023/11/15 04:03:03;;;;;;;2.60;1.00;;;;;;;7.46;94.11;95375.58;108995;1270;22565;-79
2023/11/15 04:05:34;;;;;;;1.90;0.90;;;;;;;7.48;94.45;95375.84;108967;1266;22544;-80
2023/11/15 04:08:06;;;;;;;0.80;0.70;;;;;;;7.45;94.72;95370.84;108920;1272;22555;-79
2023/11/15 04:10:38;;;;;;;1.50;0.80;;;;;;;7.43;95.04;95362.80;108845;1269;22543;-80
2023/11/15 04:13:09;;;;;;;1.10;0.80;;;;;;;7.42;95.57;95364.61;108723;1272;22518;-79
2023/11/15 04:15:40;;;;;;;1.40;0.50;;;;;;;7.41;95.82;95363.37;108745;1263;24291;-80
2023/11/15 04:18:11;;;;;;;0.90;0.60;;;;;;;7.38;96.00;95357.73;108752;1272;22646;-79
2023/11/15 04:20:43;;;;;;;1.00;0.50;;;;;;;7.37;95.92;95359.02;108885;1266;22550;-80
2023/11/15 04:23:14;;;;;;;1.70;0.70;;;;;;;7.35;96.21;95355.04;108903;1272;22554;-80
2023/11/15 04:25:45;;;;;;;1.90;0.90;;;;;;;7.33;96.25;95351.33;108869;1266;22525;-79
2023/11/15 04:28:17;;;;;;;1.00;0.70;;;;;;;7.30;96.47;95350.67;108786;1272;22640;-79
2023/11/15 04:30:48;;;;;;;1.80;0.80;;;;;;;7.27;96.97;95354.83;108837;1266;22577;-80
2023/11/15 04:33:19;;;;;;;11.30;3.00;;;;;;;7.28;96.90;95346.49;108891;1272;22535;-79
2023/11/15 04:35:50;;;;;;;6.10;1.50;;;;;;;7.27;96.99;95347.73;108718;1266;22520;-79
2023/11/15 04:38:22;;;;;;;1.80;0.90;;;;;;;7.24;97.03;95347.46;108706;1272;22563;-80
2023/11/15 04:40:54;;;;;;;10.20;2.30;;;;;;;7.23;97.12;95349.80;108841;1272;22591;-80
2023/11/15 04:43:27;;;;;;;11.90;2.70;;;;;;;7.19;97.16;95350.44;108887;1272;22564;-80
2023/11/15 04:46:04;;;;;;;53.60;14.70;;;;;;;7.18;97.44;95351.29;108830;1266;25249;-80
2023/11/15 04:48:35;;;;;;;10.60;3.80;;;;;;;7.15;97.43;95352.90;108894;1272;22475;-80
2023/11/15 04:51:07;;;;;;;1.80;0.70;;;;;;;7.14;97.62;95355.34;108874;1270;22574;-80
2023/11/15 04:53:38;;;;;;;1.10;0.40;;;;;;;7.14;98.09;95350.02;108844;1266;22515;-80
2023/11/15 04:56:13;;;;;;;13.50;4.30;;;;;;;7.16;98.27;95352.05;108863;1272;25252;-81
2023/11/15 04:58:44;;;;;;;9.70;3.80;;;;;;;7.16;98.11;95351.83;108936;1272;22529;-80
2023/11/15 05:01:15;;;;;;;8.10;2.90;;;;;;;7.14;98.12;95356.55;108871;1272;25301;-80
2023/11/15 05:03:46;;;;;;;0.20;0.20;;;;;;;7.11;98.15;95355.86;108872;1272;22528;-80
2023/11/15 05:06:18;;;;;;;0.40;0.30;;;;;;;7.10;98.52;95353.67;108847;1265;24251;-80
2023/11/15 05:08:49;;;;;;;0.30;0.20;;;;;;;7.08;98.94;95349.96;108829;1272;22544;-80
2023/11/15 05:11:20;;;;;;;3.50;1.10;;;;;;;7.07;99.17;95353.20;108859;1272;24365;-80
2023/11/15 05:13:51;;;;;;;28.60;10.50;;;;;;;7.05;99.23;95355.12;108895;1266;22660;-80
2023/11/15 05:16:22;;;;;;;22.70;10.60;;;;;;;7.01;99.22;95355.79;108872;1272;22531;-80
2023/11/15 05:18:53;;;;;;;4.30;2.40;;;;;;;6.99;99.28;95354.36;108937;1270;24234;-80
2023/11/15 05:21:25;;;;;;;0.50;0.30;;;;;;;6.96;99.26;95349.92;108997;1261;22560;-80
2023/11/15 05:23:56;;;;;;;0.60;0.30;;;;;;;6.95;99.43;95355.42;108974;1272;22644;-80
2023/11/15 05:26:28;;;;;;;0.20;0.20;;;;;;;6.94;99.50;95356.39;108917;1272;26019;-80
2023/11/15 05:29:00;;;;;;;0.90;0.50;;;;;;;6.93;99.77;95356.82;108788;1265;22559;-80
2023/11/15 05:31:31;;;;;;;0.50;0.40;;;;;;;6.92;99.83;95354.48;108886;1266;22549;-80
2023/11/15 05:34:02;;;;;;;0.70;0.40;;;;;;;6.90;99.92;95354.33;109021;1260;22564;-80
2023/11/15 05:36:33;;;;;;;0.50;0.30;;;;;;;6.88;100.00;95353.40;109045;1272;22537;-80
2023/11/15 05:39:06;;;;;;;0.40;0.20;;;;;;;6.86;99.99;95352.54;108962;1266;22541;-80
2023/11/15 05:41:37;;;;;;;0.30;0.20;;;;;;;6.86;100.00;95360.70;109061;1272;22549;-80
2023/11/15 05:44:08;;;;;;;1.10;0.30;;;;;;;6.85;100.00;95360.39;109004;1266;22524;-80
2023/11/15 05:46:40;;;;;;;1.10;0.60;;;;;;;6.85;100.00;95364.45;109177;1266;24445;-80
2023/11/15 05:49:11;;;;;;;2.30;0.60;;;;;;;6.83;100.00;95362.33;109040;1272;22532;-80
2023/11/15 05:51:42;;;;;;;2.30;1.00;;;;;;;6.83;100.00;95363.64;109079;1272;22528;-79
2023/11/15 05:54:14;;;;;;;1.20;0.50;;;;;;;6.83;100.00;95370.91;109168;1272;23061;-80
2023/11/15 05:56:47;;;;;;;0.90;0.50;;;;;;;6.85;100.00;95374.99;109111;1265;24192;-80
2023/11/15 05:59:19;;;;;;;0.60;0.50;;;;;;;6.86;100.00;95371.55;109207;1272;22580;-80
2023/11/15 06:01:51;;;;;;;1.70;1.10;;;;;;;6.85;100.00;95378.46;109085;1272;25447;-80
2023/11/15 06:04:23;;;;;;;1.40;0.70;;;;;;;6.83;100.00;95380.23;109024;1269;22563;-80
2023/11/15 06:06:54;;;;;;;2.50;1.30;;;;;;;6.82;100.00;95382.89;109050;1272;22556;-80
2023/11/15 06:09:26;;;;;;;0.70;0.40;;;;;;;6.82;100.00;95387.31;108998;1272;23400;-80
2023/11/15 06:11:57;;;;;;;1.00;0.60;;;;;;;6.83;100.00;95384.77;109043;1266;22533;-80
2023/11/15 06:14:28;;;;;;;1.20;0.60;;;;;;;6.82;100.00;95386.20;109109;1272;22559;-79
2023/11/15 06:17:04;;;;;;;0.80;0.50;;;;;;;6.81;100.00;95392.71;109055;1269;22552;-79
2023/11/15 06:19:35;;;;;;;0.60;0.60;;;;;;;6.79;100.00;95397.21;109089;1272;31331;-80
2023/11/15 06:22:07;;;;;;;0.20;0.20;;;;;;;6.78;100.00;95397.76;109078;1272;24816;-80
2023/11/15 06:24:42;;;;;;;1.80;0.50;;;;;;;6.78;100.00;95395.55;108983;1269;22528;-80
2023/11/15 06:27:14;;;;;;;0.30;0.20;;;;;;;6.78;100.00;95398.13;108955;1272;22541;-80
2023/11/15 06:29:48;;;;;;;1.20;0.50;;;;;;;6.78;100.00;95396.11;108812;1272;22602;-80
2023/11/15 06:32:19;;;;;;;0.90;0.30;;;;;;;6.76;100.00;95394.25;109036;1272;22543;-80
2023/11/15 06:34:50;;;;;;;0.70;0.40;;;;;;;6.77;100.00;95397.98;108973;1266;24189;-80
2023/11/15 06:37:21;;;;;;;2.40;0.70;;;;;;;6.76;100.00;95402.89;109280;1266;22570;-80
2023/11/15 06:39:53;;;;;;;1.70;1.00;;;;;;;6.76;100.00;95410.64;109255;1272;22591;-80
2023/11/15 06:42:24;;;;;;;0.30;0.30;;;;;;;6.74;100.00;95409.80;109088;1266;22515;-80
2023/11/15 06:44:55;;;;;;;0.40;0.40;;;;;;;6.73;100.00;95408.43;109115;1272;23338;-80
2023/11/15 06:47:28;;;;;;;1.60;0.40;;;;;;;6.73;100.00;95409.29;109135;1266;24204;-80
2023/11/15 06:49:59;;;;;;;1.10;0.50;;;;;;;6.74;100.00;95411.23;109206;1269;22488;-80
2023/11/15 06:52:33;;;;;;;1.90;0.40;;;;;;;6.73;100.00;95415.77;109198;1266;22521;-80
2023/11/15 06:55:09;;;;;;;0.90;0.60;;;;;;;6.73;100.00;95416.02;109052;1266;25431;-80
2023/11/15 06:57:43;;;;;;;1.20;0.50;;;;;;;6.71;100.00;95423.02;109070;1266;22552;-80
2023/11/15 07:00:19;;;;;;;0.50;0.50;;;;;;;6.69;100.00;95423.04;109023;1261;22532;-80
2023/11/15 07:02:51;;;;;;;0.60;0.40;;;;;;;6.69;100.00;95427.41;108998;1272;22528;-80
2023/11/15 07:05:22;;;;;;;1.40;0.50;;;;;;;6.67;100.00;95435.07;109078;1272;23826;-80
2023/11/15 07:07:53;;;;;;;0.80;0.60;;;;;;;6.67;100.00;95433.27;108977;1266;22535;-80
2023/11/15 07:10:29;;;;;;;1.10;0.60;;;;;;;6.67;100.00;95435.29;109000;1269;22485;-80
2023/11/15 07:13:00;;;;;;;1.20;0.30;;;;;;;6.68;100.00;95440.60;108988;1272;25389;-80
2023/11/15 07:15:31;;;;;;;0.80;0.40;;;;;;;6.67;100.00;95443.45;109144;1253;22742;-80
2023/11/15 07:18:03;;;;;;;0.90;0.40;;;;;;;6.64;100.00;95442.12;109173;1266;22581;-80
2023/11/15 07:20:35;;;;;;;0.80;0.30;;;;;;;6.64;100.00;95441.55;109114;1272;22532;-80
2023/11/15 07:23:06;;;;;;;1.20;0.60;;;;;;;6.65;100.00;95446.27;109141;1266;25355;-80
2023/11/15 07:25:37;;;;;;;0.50;0.40;;;;;;;6.67;100.00;95449.87;109242;1269;22514;-80
2023/11/15 07:28:10;;;;;;;0.80;0.40;;;;;;;6.68;100.00;95452.65;109159;1270;22536;-80
2023/11/15 07:30:42;;;;;;;0.60;0.30;;;;;;;6.68;100.00;95449.54;109157;1271;25411;-80
2023/11/15 07:33:14;;;;;;;0.70;0.50;;;;;;;6.67;100.00;95448.66;109130;1272;22547;-80
2023/11/15 07:35:46;;;;;;;1.00;0.50;;;;;;;6.66;100.00;95450.41;109115;1266;22562;-80
2023/11/15 07:38:18;;;;;;;1.30;0.40;;;;;;;6.66;100.00;95453.10;108928;1272;25417;-80
2023/11/15 07:40:49;;;;;;;0.90;0.60;;;;;;;6.68;100.00;95451.50;109173;1270;22621;-80
2023/11/15 07:43:20;;;;;;;1.10;0.30;;;;;;;6.72;100.00;95449.49;108863;1269;22648;-79
2023/11/15 07:45:53;;;;;;;0.80;0.50;;;;;;;6.78;100.00;95451.17;108844;1272;22517;-79
2023/11/15 07:48:25;;;;;;;1.00;0.70;;;;;;;6.86;100.00;95452.85;108811;1272;25339;-79
2023/11/15 07:51:03;;;;;;;1.00;0.40;;;;;;;6.93;100.00;95459.56;108864;1272;25261;-79
2023/11/15 07:53:34;;;;;;;1.00;0.60;;;;;;;7.06;100.00;95462.19;108852;1271;22552;-79
2023/11/15 07:56:08;;;;;;;0.80;0.70;;;;;;;7.17;100.00;95465.00;108751;1272;22563;-79
2023/11/15 07:58:39;;;;;;;1.40;0.80;;;;;;;7.24;100.00;95461.55;108733;1266;22516;-78
2023/11/15 08:01:11;;;;;;;1.50;0.60;;;;;;;7.27;100.00;95467.87;108731;1272;22576;-79
2023/11/15 08:03:43;;;;;;;1.20;0.90;;;;;;;7.28;100.00;95465.21;108695;1265;22524;-79
2023/11/15 08:06:15;;;;;;;0.40;0.40;;;;;;;7.28;100.00;95465.80;108739;1272;22518;-79
2023/11/15 08:08:49;;;;;;;1.10;0.80;;;;;;;7.24;100.00;95470.97;108694;1272;22568;-79
2023/11/15 08:11:24;;;;;;;1.20;0.60;;;;;;;7.22;100.00;95477.39;108770;1272;22529;-79
2023/11/15 08:13:55;;;;;;;1.00;0.60;;;;;;;7.22;100.00;95478.64;108752;1270;22521;-79
2023/11/15 08:16:28;;;;;;;0.60;0.50;;;;;;;7.23;100.00;95482.96;108745;1266;22547;-79
2023/11/15 08:19:00;;;;;;;1.00;0.70;;;;;;;7.23;100.00;95484.80;108707;1272;22543;-79
2023/11/15 08:21:33;;;;;;;1.30;0.70;;;;;;;7.23;100.00;95488.92;108761;1266;22528;-79
2023/11/15 08:24:06;;;;;;;2.40;1.10;;;;;;;7.23;100.00;95492.15;108720;1272;22652;-79
2023/11/15 08:26:39;;;;;;;1.90;1.00;;;;;;;7.21;100.00;95492.52;108809;1272;24167;-79
2023/11/15 08:29:12;;;;;;;1.40;0.90;;;;;;;7.23;100.00;95496.92;108856;1272;27152;-79
2023/11/15 08:31:46;;;;;;;2.10;1.40;;;;;;;7.25;100.00;95493.48;108808;1272;24491;-79
2023/11/15 08:34:20;;;;;;;2.80;1.40;;;;;;;7.23;100.00;95502.57;108803;1266;22549;-79
2023/11/15 08:36:51;;;;;;;2.30;1.30;;;;;;;7.19;100.00;95509.95;108781;1272;22764;-79
2023/11/15 08:39:22;;;;;;;3.30;2.10;;;;;;;7.18;100.00;95508.48;108691;1272;25275;-78
2023/11/15 08:41:54;;;;;;;2.20;1.50;;;;;;;7.15;100.00;95511.50;108713;1272;22571;-79
2023/11/15 08:44:25;;;;;;;1.90;1.40;;;;;;;7.13;100.00;95507.53;108757;1272;26670;-79
2023/11/15 08:46:57;;;;;;;3.00;1.80;;;;;;;7.15;100.00;95516.25;108718;1272;24222;-79
2023/11/15 08:49:29;;;;;;;1.30;1.10;;;;;;;7.16;100.00;95518.02;108729;1269;22947;-79
2023/11/15 08:52:00;;;;;;;8.90;2.80;;;;;;;7.17;100.00;95523.55;108761;1262;22547;-79
2023/11/15 08:54:32;;;;;;;2.40;1.40;;;;;;;7.18;100.00;95529.58;108750;1266;24457;-79
2023/11/15 08:57:03;;;;;;;1.20;0.90;;;;;;;7.20;100.00;95528.91;108778;1272;23284;-79
2023/11/15 08:59:36;;;;;;;2.00;1.50;;;;;;;7.24;100.00;95531.55;108741;1272;22532;-79
2023/11/15 09:02:08;;;;;;;2.00;1.40;;;;;;;7.28;100.00;95538.59;108838;1266;22538;-79
2023/11/15 09:04:40;;;;;;;2.10;1.50;;;;;;;7.33;100.00;95543.98;108790;1272;22530;-79
2023/11/15 09:07:12;;;;;;;2.20;1.40;;;;;;;7.36;100.00;95544.42;108852;1272;22553;-79
2023/11/15 09:09:44;;;;;;;1.10;1.00;;;;;;;7.37;100.00;95545.19;108847;1272;25284;-79
2023/11/15 09:12:17;;;;;;;2.30;0.80;;;;;;;7.38;100.00;95550.19;108869;1272;22569;-79
2023/11/15 09:14:49;;;;;;;1.50;1.10;;;;;;;7.37;100.00;95548.00;108833;1272;22547;-79
2023/11/15 09:17:20;;;;;;;2.10;1.30;;;;;;;7.34;100.00;95553.20;108716;1264;22650;-78
2023/11/15 09:19:59;;;;;;;3.60;1.90;;;;;;;7.31;100.00;95557.23;108673;1272;25412;-79
2023/11/15 09:22:34;;;;;;;1.20;0.70;;;;;;;7.32;100.00;95556.27;108613;1272;165718;-79
2023/11/15 09:25:11;;;;;;;0.70;0.60;;;;;;;7.33;100.00;95560.64;108701;1272;22508;-79
2023/11/15 09:27:43;;;;;;;1.00;0.70;;;;;;;7.33;100.00;95561.92;108668;1272;22596;-79
2023/11/15 09:30:15;;;;;;;0.60;0.40;;;;;;;7.32;100.00;95571.20;108728;1266;22538;-79
2023/11/15 09:32:47;;;;;;;1.70;0.60;;;;;;;7.29;100.00;95568.44;108915;1266;22517;-79
2023/11/15 09:35:21;;;;;;;2.10;1.00;;;;;;;7.27;100.00;95575.05;108905;1272;22545;-79
2023/11/15 09:37:53;;;;;;;1.20;1.10;;;;;;;7.26;100.00;95577.98;108755;1272;23719;-78
2023/11/15 09:40:25;;;;;;;2.20;1.10;;;;;;;7.25;100.00;95588.11;108779;1266;22742;-79
2023/11/15 09:42:59;;;;;;;1.50;0.70;;;;;;;7.26;100.00;95599.10;108797;1266;24242;-79
2023/11/15 09:45:38;;;;;;;0.60;0.30;;;;;;;7.28;100.00;95605.83;108840;1272;22533;-79
2023/11/15 09:48:13;;;;;;;0.70;0.40;;;;;;;7.36;100.00;95597.20;108925;1272;29886;-79
2023/11/15 09:50:50;;;;;;;0.30;0.30;;;;;;;7.47;100.00;95603.87;108846;1252;22546;-79
2023/11/15 09:53:23;;;;;;;0.80;0.40;;;;;;;7.52;100.00;95599.48;108831;1272;25404;-79
2023/11/15 09:55:54;;;;;;;1.10;0.40;;;;;;;7.53;100.00;95607.33;108815;1272;22542;-78
2023/11/15 09:58:25;;;;;;;0.50;0.40;;;;;;;7.53;100.00;95612.60;108738;1272;39340;-78
2023/11/15 10:00:56;;;;;;;0.70;0.40;;;;;;;7.52;100.00;95613.30;108674;1272;22516;-78
2023/11/15 10:03:27;;;;;;;0.50;0.40;;;;;;;7.53;100.00;95605.86;108724;1272;22532;-79
2023/11/15 10:06:00;;;;;;;0.40;0.30;;;;;;;7.53;100.00;95622.52;108734;1266;22524;-79
2023/11/15 10:08:31;;;;;;;0.80;0.70;;;;;;;7.52;100.00;95617.11;108684;1272;25504;-79
2023/11/15 10:11:08;;;;;;;1.10;0.60;;;;;;;7.52;100.00;95619.05;108715;1269;22532;-80
2023/11/15 10:13:42;;;;;;;1.10;0.60;;;;;;;7.51;100.00;95618.55;108724;1266;25281;-80
2023/11/15 10:16:34;;;;;;;2.00;0.70;;;;;;;7.52;100.00;95625.70;108743;1266;24264;-80
2023/11/15 10:19:27;;;;;;;1.40;0.60;;;;;;;7.51;100.00;95632.73;108711;1267;22520;-80
2023/11/15 10:22:04;;;;;;;1.10;0.70;;;;;;;7.47;100.00;95623.55;108754;1272;22517;-79
2023/11/15 10:24:37;;;;;;;2.90;1.30;;;;;;;7.47;100.00;95636.20;108712;1272;25242;-79
2023/11/15 10:27:14;;;;;;;3.70;1.00;;;;;;;7.49;100.00;95634.66;108717;1266;22521;-79
2023/11/15 10:29:49;;;;;;;0.50;0.40;;;;;;;7.51;100.00;95637.27;108665;1265;25519;-79
2023/11/15 10:32:23;;;;;;;0.70;0.60;;;;;;;7.53;100.00;95638.66;108733;1266;24781;-79
2023/11/15 10:34:55;;;;;;;1.90;1.30;;;;;;;7.55;100.00;95634.57;108866;1272;22539;-79
2023/11/15 10:37:26;;;;;;;1.00;0.50;;;;;;;7.52;100.00;95642.15;108746;1272;22540;-79
2023/11/15 10:39:58;;;;;;;1.00;0.70;;;;;;;7.51;100.00;95653.14;108810;1272;22546;-79
2023/11/15 10:42:34;;;;;;;1.40;0.90;;;;;;;7.50;100.00;95663.92;108818;1269;25436;-79
2023/11/15 10:45:11;;;;;;;0.90;0.50;;;;;;;7.48;100.00;95660.52;108828;1267;22531;-79
2023/11/15 10:47:52;;;;;;;0.60;0.50;;;;;;;7.45;100.00;95659.90;108898;1272;22521;-79
2023/11/15 10:50:27;;;;;;;0.50;0.20;;;;;;;7.42;100.00;95662.36;108708;1272;22615;-79
2023/11/15 10:52:59;;;;;;;1.50;0.60;;;;;;;7.42;100.00;95658.14;108699;1266;22647;-79
2023/11/15 10:55:32;;;;;;;0.50;0.40;;;;;;;7.41;99.96;95666.85;108670;1267;22553;-79
2023/11/15 10:58:05;;;;;;;1.80;0.80;;;;;;;7.41;99.99;95668.27;108739;1272;23302;-79
2023/11/15 11:00:40;;;;;;;1.30;0.70;;;;;;;7.40;100.00;95671.88;108723;1269;22527;-79
2023/11/15 11:03:11;;;;;;;0.80;0.40;;;;;;;7.38;100.00;95671.42;108763;1272;23711;-79
2023/11/15 11:05:48;;;;;;;4.90;1.90;;;;;;;7.38;100.00;95674.20;108736;1269;22511;-79
2023/11/15 11:08:29;;;;;;;2.80;1.60;;;;;;;7.42;100.00;95662.40;108687;1272;23495;-79
2023/11/15 11:11:20;;;;;;;1.90;1.70;;;;;;;7.52;100.00;95673.64;108736;1269;24485;-79
2023/11/15 11:14:20;;;;;;;1.30;0.80;;;;;;;7.60;100.00;95675.61;108696;1266;23289;-79
2023/11/15 11:16:52;;;;;;;1.40;1.30;;;;;;;7.64;100.00;95681.73;108766;1272;22529;-79
2023/11/15 11:19:25;;;;;;;3.60;2.40;;;;;;;7.67;100.00;95678.52;108671;1272;30639;-79
2023/11/15 11:22:08;;;;;;;6.60;3.70;;;;;;;7.69;100.00;95688.58;108811;1272;22531;-79
2023/11/15 11:24:45;;;;;;;4.30;2.00;;;;;;;7.72;100.00;95693.55;108762;1272;22548;-79
2023/11/15 11:27:36;;;;;;;6.10;3.80;;;;;;;7.69;100.00;95700.13;108758;1269;25413;-79
2023/11/15 11:30:23;;;;;;;4.90;2.80;;;;;;;7.65;100.00;95702.35;108806;1272;22529;-79
2023/11/15 11:33:13;;;;;;;3.40;2.40;;;;;;;7.61;100.00;95702.83;108880;1272;25690;-79
2023/11/15 11:35:46;;;;;;;3.30;2.30;;;;;;;7.58;100.00;95695.88;108824;1262;22992;-79
2023/11/15 11:38:47;;;;;;;2.40;1.40;;;;;;;7.56;100.00;95702.23;108726;1272;25395;-80
2023/11/15 11:41:19;;;;;;;2.40;1.60;;;;;;;7.55;100.00;95712.11;108819;1269;22588;-79
2023/11/15 11:43:59;;;;;;;2.30;0.70;;;;;;;7.55;100.00;95712.85;108913;1272;23065;-79
2023/11/15 11:46:31;;;;;;;1.80;1.10;;;;;;;7.54;100.00;95734.70;108823;1272;22524;-79
2023/11/15 11:49:03;;;;;;;2.80;2.00;;;;;;;7.54;100.00;95724.77;108917;1261;22531;-79
2023/11/15 11:51:35;;;;;;;2.50;1.60;;;;;;;7.57;100.00;95728.92;108839;1272;25288;-79
2023/11/15 11:54:19;;;;;;;2.10;1.50;;;;;;;7.57;100.00;95725.73;108820;1272;22530;-79
2023/11/15 11:56:51;;;;;;;3.30;1.90;;;;;;;7.60;100.00;95729.67;108871;1272;22538;-79